createdAt,value
2023-02-14T00:01:21.272Z,-0.31
2023-02-14T00:03:24.008Z,-0.32
2023-02-14T00:05:26.727Z,-0.35
2023-02-14T00:07:29.373Z,-0.33
2023-02-14T00:09:32.294Z,-0.35
2023-02-14T00:11:34.969Z,-0.37
2023-02-14T00:13:37.606Z,-0.39
2023-02-14T00:15:40.650Z,-0.36
2023-02-14T00:17:43.345Z,-0.34
2023-02-14T00:19:46.152Z,-0.33
2023-02-14T00:21:49.857Z,-0.34
2023-02-14T00:23:52.584Z,-0.34
2023-02-14T00:25:55.270Z,-0.34
2023-02-14T00:27:57.940Z,-0.33
2023-02-14T00:30:02.909Z,-0.24
2023-02-14T00:32:07.028Z,-0.05
2023-02-14T00:34:10.728Z,-0.04
2023-02-14T00:36:13.483Z,-0.20
2023-02-14T00:38:16.141Z,-0.25
2023-02-14T00:40:18.952Z,-0.21
2023-02-14T00:42:21.619Z,-0.21
2023-02-14T00:44:24.952Z,-0.22
2023-02-14T00:46:28.068Z,-0.23
2023-02-14T00:48:32.051Z,-0.17
2023-02-14T00:50:34.744Z,-0.26
2023-02-14T00:52:37.471Z,-0.24
2023-02-14T00:54:40.166Z,-0.24
2023-02-14T00:56:43.124Z,-0.35
2023-02-14T00:58:46.645Z,-0.38
2023-02-14T01:00:49.487Z,-0.48
2023-02-14T01:02:52.255Z,-0.41
2023-02-14T01:04:56.390Z,-0.40
2023-02-14T01:06:58.991Z,-0.46
2023-02-14T01:09:01.772Z,-0.43
2023-02-14T01:11:09.213Z,-0.45
2023-02-14T01:13:12.780Z,-0.38
2023-02-14T01:15:15.412Z,-0.28
2023-02-14T01:17:18.039Z,-0.24
2023-02-14T01:19:20.693Z,-0.19
2023-02-14T01:21:27.097Z,-0.36
2023-02-14T01:23:29.849Z,-0.25
2023-02-14T01:25:32.786Z,-0.18
2023-02-14T01:27:35.458Z,-0.18
2023-02-14T01:29:38.179Z,-0.37
2023-02-14T01:31:40.927Z,-0.43
2023-02-14T01:33:46.052Z,-0.49
2023-02-14T01:35:48.877Z,-0.55
2023-02-14T01:37:52.821Z,-0.59
2023-02-14T01:39:55.535Z,-0.56
2023-02-14T01:41:58.222Z,-0.55
2023-02-14T01:44:02.934Z,-0.54
2023-02-14T01:46:05.933Z,-0.56
2023-02-14T01:48:10.738Z,-0.42
2023-02-14T01:50:19.509Z,-0.38
2023-02-14T01:52:26.037Z,-0.33
2023-02-14T01:54:31.784Z,-0.48
2023-02-14T01:56:37.860Z,-0.46
2023-02-14T01:58:45.932Z,-0.54
2023-02-14T02:00:57.401Z,-0.54
2023-02-14T02:03:02.515Z,-0.58
2023-02-14T02:05:05.252Z,-0.55
2023-02-14T02:07:11.420Z,-0.55
2023-02-14T02:09:18.264Z,-0.50
2023-02-14T02:11:22.296Z,-0.35
2023-02-14T02:13:24.932Z,-0.42
2023-02-14T02:15:29.275Z,-0.40
2023-02-14T02:17:44.360Z,-0.47
2023-02-14T02:20:16.068Z,-0.52
2023-02-14T02:22:51.232Z,-0.56
2023-02-14T02:25:03.731Z,-0.56
2023-02-14T02:27:27.008Z,-0.66
2023-02-14T02:30:02.213Z,-0.66
2023-02-14T02:32:35.222Z,-0.71
2023-02-14T02:35:16.702Z,-0.65
2023-02-14T02:37:34.199Z,-0.64
2023-02-14T02:39:53.956Z,-0.65
2023-02-14T02:42:05.019Z,-0.64
2023-02-14T02:44:16.348Z,-0.65
2023-02-14T02:46:43.339Z,-0.65
2023-02-14T02:48:54.439Z,-0.54
2023-02-14T02:51:15.452Z,-0.52
2023-02-14T02:53:21.260Z,-0.43
2023-02-14T02:55:51.840Z,-0.48
2023-02-14T02:57:55.204Z,-0.36
2023-02-14T03:00:00.175Z,-0.59
2023-02-14T03:02:07.503Z,-0.61
2023-02-14T03:04:30.860Z,-0.62
2023-02-14T03:06:35.977Z,-0.54
2023-02-14T03:08:38.713Z,-0.49
2023-02-14T03:10:41.538Z,-0.48
2023-02-14T03:12:57.679Z,-0.47
2023-02-14T03:15:13.053Z,-0.50
2023-02-14T03:17:26.002Z,-0.46
2023-02-14T03:20:06.125Z,-0.55
2023-02-14T03:22:22.708Z,-0.47
2023-02-14T03:24:30.071Z,-0.44
2023-02-14T03:26:40.169Z,-0.40
2023-02-14T03:28:48.890Z,-0.44
2023-02-14T03:30:59.709Z,-0.40
2023-02-14T03:33:07.331Z,-0.41
2023-02-14T03:35:16.880Z,-0.38
2023-02-14T03:37:25.083Z,-0.41
2023-02-14T03:39:33.868Z,-0.43
2023-02-14T03:41:40.670Z,-0.38
2023-02-14T03:43:47.363Z,-0.39
2023-02-14T03:45:55.682Z,-0.45
2023-02-14T03:48:02.978Z,-0.35
2023-02-14T03:50:10.664Z,-0.38
2023-02-14T03:52:15.381Z,-0.50
2023-02-14T03:54:22.874Z,-0.36
2023-02-14T03:56:33.375Z,-0.35
2023-02-14T03:58:39.722Z,-0.36
2023-02-14T04:00:43.141Z,-0.45
2023-02-14T04:02:49.094Z,-0.48
2023-02-14T04:04:53.435Z,-0.38
2023-02-14T04:06:56.332Z,-0.33
2023-02-14T04:08:58.985Z,-0.40
2023-02-14T04:11:04.317Z,-0.53
2023-02-14T04:13:07.052Z,-0.57
2023-02-14T04:15:10.441Z,-0.66
2023-02-14T04:17:30.771Z,-0.48
2023-02-14T04:19:33.513Z,-0.56
2023-02-14T04:21:36.146Z,-0.50
2023-02-14T04:23:38.744Z,-0.64
2023-02-14T04:25:43.017Z,-0.71
2023-02-14T04:27:47.101Z,-0.66
2023-02-14T04:29:52.633Z,-0.71
2023-02-14T04:31:55.470Z,-0.61
2023-02-14T04:33:58.219Z,-0.56
2023-02-14T04:36:01.495Z,-0.69
2023-02-14T04:38:05.267Z,-0.71
2023-02-14T04:40:09.414Z,-0.75
2023-02-14T04:42:13.444Z,-0.76
2023-02-14T04:44:17.543Z,-0.75
2023-02-14T04:46:20.178Z,-0.66
2023-02-14T04:48:22.824Z,-0.61
2023-02-14T04:50:25.949Z,-0.54
2023-02-14T04:52:28.693Z,-0.56
2023-02-14T04:54:31.754Z,-0.64
2023-02-14T04:56:34.449Z,-0.60
2023-02-14T04:58:37.906Z,-0.61
2023-02-14T05:00:42.108Z,-0.55
2023-02-14T05:02:44.766Z,-0.47
2023-02-14T05:04:49.667Z,-0.57
2023-02-14T05:06:52.537Z,-0.69
2023-02-14T05:08:55.160Z,-0.59
2023-02-14T05:10:58.065Z,-0.60
2023-02-14T05:13:02.362Z,-0.71
2023-02-14T05:15:05.306Z,-0.77
2023-02-14T05:17:09.403Z,-0.78
2023-02-14T05:19:12.079Z,-0.88
2023-02-14T05:21:14.882Z,-0.82
2023-02-14T05:23:17.606Z,-0.87
2023-02-14T05:25:20.332Z,-0.78
2023-02-14T05:27:22.940Z,-0.72
2023-02-14T05:29:25.692Z,-0.69
2023-02-14T05:31:28.483Z,-0.62
2023-02-14T05:33:32.524Z,-0.73
2023-02-14T05:35:35.284Z,-0.81
2023-02-14T05:37:37.923Z,-0.88
2023-02-14T05:39:40.626Z,-0.91
2023-02-14T05:41:43.390Z,-0.89
2023-02-14T05:43:46.043Z,-0.98
2023-02-14T05:45:49.110Z,-0.98
2023-02-14T05:47:51.962Z,-1.02
2023-02-14T05:49:55.904Z,-1.00
2023-02-14T05:51:58.532Z,-1.00
2023-02-14T05:54:01.286Z,-1.02
2023-02-14T05:56:04.347Z,-1.00
2023-02-14T05:58:07.010Z,-0.90
2023-02-14T06:00:11.483Z,-0.82
2023-02-14T06:02:15.864Z,-0.86
2023-02-14T06:04:18.686Z,-0.84
2023-02-14T06:06:22.725Z,-0.80
2023-02-14T06:08:25.560Z,-0.71
2023-02-14T06:10:28.286Z,-0.69
2023-02-14T06:12:31.081Z,-0.88
2023-02-14T06:14:33.711Z,-0.71
2023-02-14T06:16:36.541Z,-0.87
2023-02-14T06:18:39.282Z,-0.85
2023-02-14T06:20:41.877Z,-0.89
2023-02-14T06:22:45.959Z,-0.88
2023-02-14T06:24:48.557Z,-0.81
2023-02-14T06:26:51.296Z,-1.09
2023-02-14T06:28:54.669Z,-1.12
2023-02-14T06:30:57.454Z,-1.14
2023-02-14T06:33:03.199Z,-1.09
2023-02-14T06:35:06.489Z,-1.06
2023-02-14T06:37:09.436Z,-1.11
2023-02-14T06:39:13.462Z,-1.07
2023-02-14T06:41:17.196Z,-1.15
2023-02-14T06:43:19.884Z,-1.15
2023-02-14T06:45:22.508Z,-1.13
2023-02-14T06:47:25.216Z,-1.13
2023-02-14T06:49:27.965Z,-1.12
2023-02-14T06:51:30.715Z,-1.11
2023-02-14T06:53:33.657Z,-1.10
2023-02-14T06:55:37.633Z,-1.04
2023-02-14T06:57:40.495Z,-0.99
2023-02-14T06:59:43.154Z,-0.97
2023-02-14T07:01:45.904Z,-0.91
2023-02-14T07:03:48.574Z,-0.91
2023-02-14T07:05:51.305Z,-0.84
2023-02-14T07:07:54.254Z,-0.79
2023-02-14T07:09:56.940Z,-0.70
2023-02-14T07:12:01.072Z,-0.50
2023-02-14T07:14:03.702Z,-0.61
2023-02-14T07:16:06.866Z,-0.54
2023-02-14T07:18:10.567Z,-0.43
2023-02-14T07:20:14.610Z,-0.32
2023-02-14T07:22:17.319Z,-0.34
2023-02-14T07:24:19.981Z,-0.13
2023-02-14T07:26:22.741Z,-0.11
2023-02-14T07:28:26.924Z,-0.10
2023-02-14T07:30:29.690Z,0.03
2023-02-14T07:32:32.530Z,-0.13
2023-02-14T07:34:35.212Z,0.06
2023-02-14T07:36:38.706Z,0.11
2023-02-14T07:38:41.464Z,0.18
2023-02-14T07:40:44.091Z,0.35
2023-02-14T07:42:53.568Z,0.23
2023-02-14T07:44:57.539Z,0.17
2023-02-14T07:47:00.236Z,0.24
2023-02-14T07:49:02.957Z,0.08
2023-02-14T07:51:05.674Z,0.32
2023-02-14T07:53:09.174Z,0.48
2023-02-14T07:55:12.020Z,0.25
2023-02-14T07:57:14.726Z,0.43
2023-02-14T07:59:17.650Z,0.71
2023-02-14T08:01:22.205Z,1.20
2023-02-14T08:03:25.078Z,1.70
2023-02-14T08:05:27.836Z,2.26
2023-02-14T08:07:30.587Z,2.83
2023-02-14T08:09:33.287Z,3.38
2023-02-14T08:12:07.946Z,2.81
2023-02-14T08:14:10.707Z,3.34
2023-02-14T08:16:13.428Z,4.37
2023-02-14T08:18:18.653Z,4.64
2023-02-14T08:20:21.562Z,3.39
2023-02-14T08:22:24.295Z,2.82
2023-02-14T08:24:27.431Z,3.56
2023-02-14T08:26:30.213Z,4.15
2023-02-14T08:28:33.540Z,4.98
2023-02-14T08:30:38.197Z,4.24
2023-02-14T08:32:41.068Z,3.76
2023-02-14T08:34:45.194Z,4.15
2023-02-14T08:36:48.418Z,6.45
2023-02-14T08:38:51.184Z,5.47
2023-02-14T08:40:53.871Z,5.23
2023-02-14T08:42:56.748Z,5.81
2023-02-14T08:44:59.517Z,6.31
2023-02-14T08:47:03.679Z,5.11
2023-02-14T08:49:06.571Z,4.20
2023-02-14T08:51:12.509Z,4.38
2023-02-14T08:53:15.199Z,6.01
2023-02-14T08:55:18.085Z,6.98
2023-02-14T08:57:21.168Z,5.96
2023-02-14T08:59:24.007Z,5.13
2023-02-14T09:01:27.685Z,5.56
2023-02-14T09:03:30.900Z,6.75
2023-02-14T09:05:34.317Z,6.60
2023-02-14T09:07:38.734Z,7.16
2023-02-14T09:09:41.749Z,7.41
2023-02-14T09:11:44.549Z,7.30
2023-02-14T09:13:48.252Z,6.72
2023-02-14T09:15:50.930Z,4.99
2023-02-14T09:17:53.674Z,5.89
2023-02-14T09:19:56.402Z,5.37
2023-02-14T09:21:59.101Z,6.05
2023-02-14T09:24:03.149Z,5.62
2023-02-14T09:26:07.914Z,5.42
2023-02-14T09:28:10.549Z,6.83
2023-02-14T09:30:14.584Z,6.37
2023-02-14T09:32:17.641Z,5.95
2023-02-14T09:34:38.019Z,6.42
2023-02-14T09:36:40.826Z,7.25
2023-02-14T09:38:43.623Z,5.31
2023-02-14T09:40:50.603Z,5.44
2023-02-14T09:43:02.139Z,5.70
2023-02-14T09:45:10.737Z,7.95
2023-02-14T09:47:22.864Z,9.95
2023-02-14T09:49:34.741Z,8.61
2023-02-14T09:51:38.826Z,9.99
2023-02-14T09:53:47.318Z,8.79
2023-02-14T09:55:56.922Z,8.76
2023-02-14T09:58:12.105Z,8.57
2023-02-14T10:00:22.403Z,9.31
2023-02-14T10:02:43.480Z,7.44
2023-02-14T10:04:58.715Z,7.67
2023-02-14T10:07:12.185Z,8.64
2023-02-14T10:09:33.589Z,9.24
2023-02-14T10:11:38.459Z,10.26
2023-02-14T10:13:46.031Z,8.34
2023-02-14T10:15:53.887Z,7.78
2023-02-14T10:18:01.742Z,7.34
2023-02-14T10:20:15.960Z,9.87
2023-02-14T10:22:20.849Z,9.20
2023-02-14T10:24:28.702Z,9.51
2023-02-14T10:26:37.075Z,10.02
2023-02-14T10:28:45.741Z,8.89
2023-02-14T10:30:57.891Z,7.13
2023-02-14T10:33:07.083Z,6.84
2023-02-14T10:35:23.715Z,7.45
2023-02-14T10:37:39.843Z,7.02
2023-02-14T10:39:58.290Z,6.10
2023-02-14T10:42:07.700Z,6.47
2023-02-14T10:44:23.592Z,6.42
2023-02-14T10:46:37.884Z,7.45
2023-02-14T10:48:52.814Z,7.86
2023-02-14T10:51:01.975Z,8.55
2023-02-14T10:53:15.008Z,7.76
2023-02-14T10:55:32.083Z,8.21
2023-02-14T10:57:38.813Z,8.07
2023-02-14T10:59:52.476Z,7.18
2023-02-14T11:01:57.327Z,7.01
2023-02-14T11:04:06.450Z,6.56
2023-02-14T11:06:10.247Z,7.01
2023-02-14T11:08:23.167Z,7.26
2023-02-14T11:10:29.735Z,6.63
2023-02-14T11:12:34.201Z,6.90
2023-02-14T11:14:38.508Z,6.51
2023-02-14T11:16:42.479Z,6.71
2023-02-14T11:18:45.323Z,6.85
2023-02-14T11:21:01.820Z,7.27
2023-02-14T11:23:19.858Z,6.68
2023-02-14T11:25:24.804Z,6.96
2023-02-14T11:27:27.827Z,6.77
2023-02-14T11:29:32.739Z,6.96
2023-02-14T11:31:39.098Z,7.13
2023-02-14T11:33:45.711Z,6.52
2023-02-14T11:35:51.590Z,7.01
2023-02-14T11:37:56.742Z,7.14
2023-02-14T11:40:01.191Z,6.88
2023-02-14T11:42:06.439Z,7.66
2023-02-14T11:44:22.317Z,7.57
2023-02-14T11:46:30.506Z,7.52
2023-02-14T11:48:38.862Z,7.96
2023-02-14T11:50:45.321Z,7.86
2023-02-14T11:52:52.112Z,8.08
2023-02-14T11:54:54.934Z,8.47
2023-02-14T11:57:02.678Z,8.10
2023-02-14T11:59:06.345Z,8.01
2023-02-14T12:01:13.611Z,7.88
2023-02-14T12:03:20.033Z,8.08
2023-02-14T12:05:27.258Z,8.22
2023-02-14T12:07:34.527Z,7.88
2023-02-14T12:09:40.674Z,7.47
2023-02-14T12:11:56.467Z,7.39
2023-02-14T12:13:59.875Z,8.10
2023-02-14T12:16:03.816Z,8.25
2023-02-14T12:18:37.947Z,8.64
2023-02-14T12:20:46.439Z,8.03
2023-02-14T12:22:56.541Z,7.88
2023-02-14T12:25:07.443Z,8.11
2023-02-14T12:27:21.071Z,8.21
2023-02-14T12:29:27.991Z,8.46
2023-02-14T12:31:31.576Z,8.40
2023-02-14T12:33:34.389Z,8.64
2023-02-14T12:35:48.472Z,8.96
2023-02-14T12:38:04.600Z,9.31
2023-02-14T12:40:17.546Z,8.78
2023-02-14T12:42:35.482Z,8.92
2023-02-14T12:44:48.636Z,10.21
2023-02-14T12:47:17.766Z,10.09
2023-02-14T12:49:49.442Z,10.08
2023-02-14T12:52:01.033Z,10.03
2023-02-14T12:54:22.105Z,10.19
2023-02-14T12:56:37.224Z,10.80
2023-02-14T12:58:50.737Z,10.44
2023-02-14T13:01:06.199Z,10.75
2023-02-14T13:03:28.249Z,12.63
2023-02-14T13:05:46.501Z,10.84
2023-02-14T13:08:14.843Z,10.24
2023-02-14T13:10:32.698Z,11.35
2023-02-14T13:12:42.118Z,10.20
2023-02-14T13:14:59.317Z,9.89
2023-02-14T13:17:09.150Z,10.80
2023-02-14T13:19:22.255Z,10.61
2023-02-14T13:21:28.930Z,11.89
2023-02-14T13:23:37.266Z,12.53
2023-02-14T13:25:49.860Z,12.02
2023-02-14T13:27:52.761Z,10.53
2023-02-14T13:29:59.064Z,10.15
2023-02-14T13:32:04.028Z,9.49
2023-02-14T13:34:10.131Z,9.59
2023-02-14T13:36:14.442Z,9.64
2023-02-14T13:38:19.617Z,9.76
2023-02-14T13:40:24.817Z,10.41
2023-02-14T13:42:55.504Z,10.26
2023-02-14T13:44:58.435Z,9.78
2023-02-14T13:47:01.179Z,10.12
2023-02-14T13:49:17.113Z,9.97
2023-02-14T13:51:19.707Z,11.06
2023-02-14T13:53:36.947Z,10.84
2023-02-14T13:55:45.582Z,10.16
2023-02-14T13:58:04.206Z,9.75
2023-02-14T14:00:37.307Z,9.63
2023-02-14T14:02:45.413Z,10.22
2023-02-14T14:04:48.090Z,9.77
2023-02-14T14:07:17.630Z,9.73
2023-02-14T14:09:53.466Z,9.74
2023-02-14T14:11:56.348Z,9.86
2023-02-14T14:14:02.551Z,10.02
2023-02-14T14:16:27.373Z,10.30
2023-02-14T14:18:42.697Z,9.72
2023-02-14T14:20:47.875Z,9.72
2023-02-14T14:22:52.942Z,9.69
2023-02-14T14:25:01.885Z,9.49
2023-02-14T14:27:07.856Z,9.61
2023-02-14T14:29:17.241Z,9.61
2023-02-14T14:31:21.027Z,9.60
2023-02-14T14:33:30.100Z,9.70
2023-02-14T14:35:32.766Z,9.27
2023-02-14T14:37:37.433Z,9.42
2023-02-14T14:39:40.286Z,9.47
2023-02-14T14:41:43.016Z,9.44
2023-02-14T14:43:45.909Z,9.06
2023-02-14T14:45:52.885Z,9.37
2023-02-14T14:47:58.617Z,9.38
2023-02-14T14:50:07.526Z,9.37
2023-02-14T14:52:25.457Z,9.29
2023-02-14T14:54:30.057Z,9.37
2023-02-14T14:56:35.841Z,9.41
2023-02-14T14:58:40.279Z,9.45
2023-02-14T15:00:53.786Z,9.42
2023-02-14T15:03:02.772Z,9.06
2023-02-14T15:05:26.473Z,9.36
2023-02-14T15:07:34.010Z,9.12
2023-02-14T15:09:36.951Z,9.07
2023-02-14T15:11:59.205Z,8.85
2023-02-14T15:14:05.678Z,8.96
2023-02-14T15:16:09.785Z,8.95
2023-02-14T15:18:14.271Z,9.09
2023-02-14T15:20:20.179Z,9.03
2023-02-14T15:22:26.562Z,8.89
2023-02-14T15:24:30.464Z,8.97
2023-02-14T15:26:36.400Z,8.74
2023-02-14T15:28:39.123Z,8.66
2023-02-14T15:30:44.113Z,8.67
2023-02-14T15:32:50.262Z,8.69
2023-02-14T15:34:53.766Z,8.70
2023-02-14T15:37:03.430Z,8.64
2023-02-14T15:39:09.495Z,8.55
2023-02-14T15:41:14.887Z,8.55
2023-02-14T15:43:27.768Z,8.48
2023-02-14T15:45:31.739Z,8.42
2023-02-14T15:47:34.572Z,8.43
2023-02-14T15:49:41.127Z,8.35
2023-02-14T15:51:44.377Z,8.27
2023-02-14T15:53:52.377Z,8.33
2023-02-14T15:55:56.158Z,8.07
2023-02-14T15:58:03.668Z,8.08
2023-02-14T16:00:11.378Z,8.02
2023-02-14T16:02:28.957Z,7.87
2023-02-14T16:04:34.544Z,7.89
2023-02-14T16:06:40.383Z,7.75
2023-02-14T16:08:43.017Z,7.77
2023-02-14T16:11:00.003Z,7.57
2023-02-14T16:13:09.647Z,7.49
2023-02-14T16:15:20.215Z,7.45
2023-02-14T16:17:33.287Z,7.33
2023-02-14T16:19:38.797Z,7.30
2023-02-14T16:21:57.177Z,7.30
2023-02-14T16:24:13.148Z,7.23
2023-02-14T16:26:16.170Z,7.15
2023-02-14T16:28:19.040Z,7.01
2023-02-14T16:30:22.168Z,7.05
2023-02-14T16:32:25.365Z,6.99
2023-02-14T16:34:28.850Z,6.96
2023-02-14T16:36:33.883Z,6.70
2023-02-14T16:38:43.733Z,6.69
2023-02-14T16:40:48.690Z,6.71
2023-02-14T16:42:51.402Z,6.68
2023-02-14T16:44:54.283Z,6.66
2023-02-14T16:46:56.935Z,6.57
2023-02-14T16:48:59.859Z,6.57
2023-02-14T16:51:02.812Z,6.47
2023-02-14T16:53:07.103Z,6.43
2023-02-14T16:55:19.849Z,6.39
2023-02-14T16:57:27.452Z,6.39
2023-02-14T16:59:30.798Z,6.27
2023-02-14T17:01:33.810Z,6.32
2023-02-14T17:03:36.500Z,6.21
2023-02-14T17:05:41.760Z,6.25
2023-02-14T17:07:44.619Z,6.28
2023-02-14T17:09:51.112Z,6.17
2023-02-14T17:11:58.599Z,6.08
2023-02-14T17:14:01.425Z,6.11
2023-02-14T17:16:06.249Z,6.05
2023-02-14T17:18:13.023Z,5.88
2023-02-14T17:20:19.289Z,5.89
2023-02-14T17:22:22.042Z,5.89
2023-02-14T17:24:24.831Z,5.96
2023-02-14T17:26:29.774Z,5.88
2023-02-14T17:28:34.005Z,5.87
2023-02-14T17:30:36.795Z,5.82
2023-02-14T17:32:39.557Z,5.73
2023-02-14T17:34:42.308Z,5.66
2023-02-14T17:36:45.040Z,5.61
2023-02-14T17:38:47.974Z,5.55
2023-02-14T17:40:51.017Z,5.50
2023-02-14T17:42:54.111Z,5.35
2023-02-14T17:44:58.480Z,5.33
2023-02-14T17:47:01.316Z,5.33
2023-02-14T17:49:04.200Z,5.28
2023-02-14T17:51:08.367Z,5.21
2023-02-14T17:53:12.575Z,5.21
2023-02-14T17:55:16.262Z,5.12
2023-02-14T17:57:19.496Z,5.12
2023-02-14T17:59:22.427Z,5.07
2023-02-14T18:01:28.616Z,5.03
2023-02-14T18:03:31.509Z,4.96
2023-02-14T18:05:37.041Z,4.94
2023-02-14T18:07:40.212Z,4.89
2023-02-14T18:09:43.261Z,4.86
2023-02-14T18:11:46.758Z,4.82
2023-02-14T18:13:50.239Z,4.77
2023-02-14T18:15:53.763Z,4.77
2023-02-14T18:17:57.890Z,4.71
2023-02-14T18:20:00.640Z,4.71
2023-02-14T18:22:03.502Z,4.70
2023-02-14T18:24:06.696Z,4.65
2023-02-14T18:26:13.028Z,4.61
2023-02-14T18:28:16.420Z,4.60
2023-02-14T18:30:19.502Z,4.63
2023-02-14T18:32:22.138Z,4.58
2023-02-14T18:34:26.122Z,4.58
2023-02-14T18:36:29.521Z,4.57
2023-02-14T18:38:32.222Z,4.54
2023-02-14T18:40:35.382Z,4.50
2023-02-14T18:42:38.132Z,4.46
2023-02-14T18:44:40.835Z,4.43
2023-02-14T18:46:43.471Z,4.40
2023-02-14T18:48:47.395Z,4.37
2023-02-14T18:50:52.822Z,4.33
2023-02-14T18:52:55.679Z,4.34
2023-02-14T18:54:59.331Z,4.34
2023-02-14T18:57:02.071Z,4.29
2023-02-14T18:59:06.485Z,4.30
2023-02-14T19:01:09.908Z,4.31
2023-02-14T19:03:12.699Z,4.27
2023-02-14T19:05:15.395Z,4.18
2023-02-14T19:07:19.395Z,4.18
2023-02-14T19:09:22.089Z,4.15
2023-02-14T19:11:27.350Z,4.15
2023-02-14T19:13:32.115Z,4.21
2023-02-14T19:15:34.781Z,4.15
2023-02-14T19:17:38.961Z,4.05
2023-02-14T19:19:41.703Z,4.13
2023-02-14T19:21:44.418Z,4.03
2023-02-14T19:23:49.544Z,4.01
2023-02-14T19:25:52.293Z,4.03
2023-02-14T19:27:55.066Z,3.98
2023-02-14T19:29:57.725Z,3.93
2023-02-14T19:32:00.879Z,3.96
2023-02-14T19:34:04.311Z,3.95
2023-02-14T19:36:09.158Z,3.93
2023-02-14T19:38:12.133Z,3.88
2023-02-14T19:40:16.315Z,3.93
2023-02-14T19:42:18.942Z,3.93
2023-02-14T19:44:23.614Z,3.94
2023-02-14T19:46:29.280Z,3.87
2023-02-14T19:48:31.953Z,3.80
2023-02-14T19:50:34.631Z,3.79
2023-02-14T19:52:37.329Z,3.75
2023-02-14T19:54:40.220Z,3.73
2023-02-14T19:56:46.125Z,3.75
2023-02-14T19:58:49.248Z,3.73
2023-02-14T20:00:56.859Z,3.83
2023-02-14T20:03:01.716Z,3.81
2023-02-14T20:05:04.496Z,3.64
2023-02-14T20:07:07.147Z,3.66
2023-02-14T20:09:10.021Z,3.51
2023-02-14T20:11:25.638Z,3.65
2023-02-14T20:13:29.573Z,3.72
2023-02-14T20:15:32.425Z,3.56
2023-02-14T20:17:35.450Z,3.28
2023-02-14T20:19:38.168Z,3.20
2023-02-14T20:21:42.619Z,3.19
2023-02-14T20:23:45.996Z,3.19
2023-02-14T20:25:48.583Z,3.20
2023-02-14T20:27:54.660Z,3.14
2023-02-14T20:29:58.649Z,3.19
2023-02-14T20:32:03.600Z,3.11
2023-02-14T20:34:07.121Z,3.00
2023-02-14T20:36:11.013Z,3.03
2023-02-14T20:38:13.638Z,3.12
2023-02-14T20:40:16.428Z,3.00
2023-02-14T20:42:19.111Z,2.93
2023-02-14T20:44:22.192Z,3.03
2023-02-14T20:46:26.278Z,2.99
2023-02-14T20:48:29.648Z,2.96
2023-02-14T20:50:32.659Z,2.93
2023-02-14T20:52:37.107Z,2.91
2023-02-14T20:54:40.374Z,2.85
2023-02-14T20:56:43.151Z,2.84
2023-02-14T20:58:46.094Z,2.86
2023-02-14T21:00:48.984Z,2.77
2023-02-14T21:02:53.326Z,2.69
2023-02-14T21:05:00.090Z,2.64
2023-02-14T21:07:07.698Z,2.66
2023-02-14T21:09:10.408Z,2.55
2023-02-14T21:11:15.687Z,2.49
2023-02-14T21:13:18.368Z,2.50
2023-02-14T21:15:21.054Z,2.43
2023-02-14T21:17:23.815Z,2.34
2023-02-14T21:19:28.532Z,2.32
2023-02-14T21:21:34.674Z,2.37
2023-02-14T21:23:37.334Z,2.28
2023-02-14T21:25:40.400Z,2.27
2023-02-14T21:27:43.194Z,2.26
2023-02-14T21:29:45.858Z,2.29
2023-02-14T21:31:48.544Z,2.10
2023-02-14T21:33:53.305Z,2.20
2023-02-14T21:35:57.328Z,2.14
2023-02-14T21:38:00.104Z,2.06
2023-02-14T21:40:02.929Z,1.95
2023-02-14T21:42:05.706Z,1.99
2023-02-14T21:44:08.353Z,1.99
2023-02-14T21:46:11.689Z,1.95
2023-02-14T21:48:31.972Z,1.90
2023-02-14T21:50:34.613Z,1.83
2023-02-14T21:52:38.758Z,1.88
2023-02-14T21:54:41.474Z,1.92
2023-02-14T21:56:44.543Z,1.86
2023-02-14T21:58:48.342Z,1.96
2023-02-14T22:00:50.996Z,1.82
2023-02-14T22:02:53.872Z,1.86
2023-02-14T22:04:56.748Z,1.81
2023-02-14T22:06:59.384Z,1.82
2023-02-14T22:09:03.731Z,1.80
2023-02-14T22:11:07.800Z,1.79
2023-02-14T22:13:10.550Z,1.84
2023-02-14T22:15:13.395Z,1.84
2023-02-14T22:17:16.113Z,1.98
2023-02-14T22:19:18.881Z,1.92
2023-02-14T22:21:23.539Z,1.85
2023-02-14T22:23:28.998Z,1.87
2023-02-14T22:25:33.276Z,1.86
2023-02-14T22:27:39.334Z,1.89
2023-02-14T22:29:42.081Z,1.92
2023-02-14T22:31:45.039Z,1.85
2023-02-14T22:33:49.166Z,1.80
2023-02-14T22:35:55.411Z,1.81
2023-02-14T22:37:58.134Z,1.76
2023-02-14T22:40:00.818Z,1.77
2023-02-14T22:42:06.855Z,1.72
2023-02-14T22:44:11.619Z,1.72
2023-02-14T22:46:16.922Z,1.66
2023-02-14T22:48:20.416Z,1.73
2023-02-14T22:50:23.056Z,1.90
2023-02-14T22:52:25.799Z,1.65
2023-02-14T22:54:28.553Z,1.66
2023-02-14T22:56:34.212Z,1.70
2023-02-14T22:58:38.320Z,1.61
2023-02-14T23:00:40.937Z,1.60
2023-02-14T23:02:43.743Z,1.53
2023-02-14T23:04:46.775Z,1.63
2023-02-14T23:06:49.751Z,1.53
2023-02-14T23:08:53.246Z,1.36
2023-02-14T23:10:55.980Z,1.29
2023-02-14T23:13:16.286Z,1.27
2023-02-14T23:15:34.314Z,1.23
2023-02-14T23:17:54.747Z,1.23
2023-02-14T23:20:15.333Z,1.31
2023-02-14T23:22:20.451Z,1.27
2023-02-14T23:24:23.900Z,1.19
2023-02-14T23:26:26.516Z,1.19
2023-02-14T23:28:29.472Z,1.08
2023-02-14T23:30:33.443Z,1.06
2023-02-14T23:32:36.175Z,1.14
2023-02-14T23:34:41.215Z,1.14
2023-02-14T23:36:44.080Z,1.08
2023-02-14T23:38:46.712Z,1.06
2023-02-14T23:41:06.854Z,1.06
2023-02-14T23:43:09.487Z,1.04
2023-02-14T23:45:29.856Z,1.01
2023-02-14T23:47:34.493Z,1.04
2023-02-14T23:49:39.034Z,1.09
2023-02-14T23:51:42.305Z,1.22
2023-02-14T23:53:44.898Z,1.13
2023-02-14T23:55:47.554Z,1.08
2023-02-14T23:57:50.193Z,1.11
2023-02-14T23:59:52.983Z,1.13
